ADDS METAR Data INFO
IDs: Format: Raw Decoded Include TAF

Data at: 0051 UTC 22 Oct 2017

KGPI 212355Z 18007KT 10SM FEW049 FEW060 OVC080 07/M02 A2992 RMK AO2 SLP142 T00721017 10083 20067 58011
KGPI 212255Z 19009KT 10SM FEW055 OVC095 08/M02 A2993 RMK AO2 SLP147 T00831022
KGPI 212155Z 21010KT 10SM OVC055 08/M02 A2996 RMK AO2 SLP159 T00781022
KGPI 212055Z 22010KT 10SM OVC050 07/M02 A2995 RMK AO2 SLP155 T00721022 58010 $
KGPI 211955Z 17006KT 10SM OVC055 08/M03 A2996 RMK AO2 SLP158 T00781028 $
KGPI 211855Z 23008KT 10SM OVC060 07/M03 A2998 RMK AO2 SLP165 T00671028 $
KGPI 211755Z 22009KT 10SM SCT065 07/M02 A2999 RMK AO2 SLP168 T00671022 10078 20033 51011 $
KGPI 211655Z 22014KT 10SM SCT048 BKN060 08/M02 A2997 RMK AO2 SLP162 T00781017 $
KGPI 211555Z 19007KT 10SM CLR 06/M01 A2996 RMK AO2 SLP161 T00611006 $
KGPI 211455Z 22005KT 10SM OVC075 04/M01 A2995 RMK AO2 SLP160 T00441006 51016 $
KGPI 211355Z 19007KT 10SM BKN065 OVC080 04/00 A2994 RMK AO2 SLP152 T00390000 $
KGPI 211255Z AUTO 19008KT 10SM BKN070 OVC090 05/01 A2993 RMK AO2 SLP146 T00500006 $
KGPI 211155Z AUTO 18006KT 10SM SCT060 OVC085 04/01 A2990 RMK AO2 SLP137 60003 70013 T00440011 10050 20033 53018 $
KGPI 211055Z AUTO 20007KT 10SM BKN037 OVC100 04/02 A2988 RMK AO2 SLP130 T00440022 $
KGPI 210955Z AUTO 15004KT 10SM SCT026 BKN046 BKN060 03/03 A2986 RMK AO2 RAE52 SLP125 P0002 T00330028 $
KGPI 210855Z AUTO 22009KT 10SM -RA SCT041 SCT060 OVC075 04/02 A2984 RMK AO2 RAE01B35 SLP117 P0000 60001 T00440022 53018 $
KGPI 210755Z AUTO 20005KT 9SM -RA FEW018 BKN035 OVC043 04/03 A2983 RMK AO2 RAB07 SLP111 P0001 T00440028 $
KGPI 210655Z AUTO 21009KT 10SM OVC055 05/01 A2980 RMK AO2 RAB16E28 SLP101 P0000 T00500011 400890017 $
KGPI 210555Z 10SM BKN046 OVC060 04/01 A2979 RMK AO2 SLP099 T00440011 10078 20017 53020 $
KGPI 210455Z 12005KT 10SM FEW048 BKN085 OVC100 04/01 A2976 RMK AO2 SLP091 T00390011 $
KGPI 210355Z 00000KT 10SM BKN048 OVC075 04/01 A2974 RMK AO2 SLP082 T00390006 $
KGPI 210255Z 23005KT 10SM CLR 03/00 A2972 RMK AO2 SLP075 T00330000 51029 $
KGPI 210155Z 21005KT 10SM BKN049 06/01 A2970 RMK AO2 SLP066 T00560011 $
KGPI 210055Z 21007KT 10SM BKN049 BKN080 07/01 A2967 RMK AO2 SLP053 T00720011 $
KGPI 202355Z 20009KT 10SM BKN044 BKN055 OVC080 08/01 A2963 RMK AO2 SLP040 60000 T00780011 10078 20061 51026 $
KGPI 202255Z 21012KT 10SM BKN044 OVC055 08/02 A2960 RMK AO2 SLP032 T00780022 $
KGPI 202155Z 16009KT 10SM OVC039 07/04 A2957 RMK AO2 SLP023 T00670044 $
KGPI 202055Z 19010KT 10SM SCT038 BKN045 OVC055 08/03 A2954 RMK AO2 SLP012 60000 T00780028 53017
KGPI 201955Z 19010KT 10SM OVC070 08/03 A2952 RMK AO2 SLP003 T00780033
KGPI 201855Z 19009KT 10SM SCT038 BKN048 OVC055 07/04 A2951 RMK AO2 RAE49 SLP999 P0000 T00720039
KGPI 201755Z 15005KT 9SM -RA OVC034 07/04 A2949 RMK AO2 SLP990 P0002 60010 T00670039 10089 20061 51023
KGPI 201655Z 19007KT 7SM -RA OVC033 07/04 A2947 RMK AO2 SLP986 P0004 T00670039
KGPI 201555Z 23006KT 8SM -RA BKN034 OVC044 08/04 A2944 RMK AO2 SLP973 P0003 T00780039
KGPI 201455Z 16004KT 10SM RA BKN037 OVC049 08/04 A2942 RMK AO2 SLP963 P0001 60001 T00830044 53009
KGPI 201355Z 27007KT 10SM -RA BKN047 OVC065 09/04 A2939 RMK AO2 SLP951 P0000 T00890039
KGPI 201255Z AUTO 27005KT 10SM -RA SCT050 SCT060 OVC100 08/02 A2940 RMK AO2 RAB03E13B51 SLP954 P0000 T00830022